• Join FlightAware (Why Join?)
  • Login
  • US Flag 
02:02PM EST


 

Airport Tracker/Info


-or-


 

Live Flight TrackerFlight Track Log ✈ C-GONN ✈ 17-Apr-2013 ✈ CYZP - CYVR

Flight Track Log - Related Links

Times and Time Zones

All times are in EDT time to prevent confusion due to time zone crossing. See the C-GONN flight status page for this flight to view local times or setup timezone preferences in your user account.

Time Position Orientation Groundspeed Altitude Reporting Facility
EDT Latitude Longitude Course Direction KTS MPH feet Rate Location/Type
06:39PM 53.2500 -131.8667 31° Northeast 100 115 1,000  Level Vancouver Center
06:40PM 53.2667 -131.8500 31° Northeast 120 138 2,400 1,200 Climbing Vancouver Center
06:41PM 53.2500 -131.7833 113° Southeast 150 173 3,400 900 Climbing Vancouver Center
06:42PM 53.2167 -131.7000 124° Southeast 180 207 4,300 960 Climbing Vancouver Center
06:43PM 53.2000 -131.6333 113° Southeast 190 219 5,400 1,140 Climbing Vancouver Center
06:44PM 53.1667 -131.5500 124° Southeast 200 230 6,600 1,200 Climbing Vancouver Center
06:45PM 53.1333 -131.4667 124° Southeast 200 230 7,900 1,200 Climbing Vancouver Center
06:46PM 53.1000 -131.4000 130° Southeast 200 230 9,100 1,200 Climbing Vancouver Center
06:47PM 53.0833 -131.3167 108° East 200 230 10,400 1,140 Climbing Vancouver Center
06:48PM 53.0500 -131.2500 130° Southeast 200 230 11,400 960 Climbing Vancouver Center
06:49PM 53.0167 -131.1667 124° Southeast 210 242 12,400 900 Climbing Vancouver Center
06:50PM 53.0000 -131.0667 105° East 210 242 13,300 900 Climbing Vancouver Center
06:51PM 52.9500 -130.9833 135° Southeast 220 253 14,300 960 Climbing Vancouver Center
06:52PM 52.9167 -130.9000 124° Southeast 230 265 15,300 1,020 Climbing Vancouver Center
06:53PM 52.9000 -130.8000 105° East 230 265 16,400 900 Climbing Vancouver Center
06:54PM 52.8500 -130.7167 135° Southeast 230 265 17,100 660 Climbing Vancouver Center
06:55PM 52.8167 -130.6333 123° Southeast 240 276 17,800 600 Climbing Vancouver Center
06:56PM 52.7833 -130.5167 115° Southeast 240 276 18,400 660 Climbing Vancouver Center
06:57PM 52.7500 -130.4167 119° Southeast 240 276 19,200 780 Climbing Vancouver Center
06:58PM 52.7000 -130.3333 135° Southeast 240 276 20,000 660 Climbing Vancouver Center
06:59PM 52.6667 -130.2500 123° Southeast 250 288 20,600 600 Climbing Vancouver Center
07:00PM 52.6333 -130.1333 115° Southeast 250 288 21,300 720 Climbing Vancouver Center
07:01PM 52.6000 -130.0333 119° Southeast 250 288 22,100 660 Climbing Vancouver Center
07:02PM 52.5500 -129.9500 135° Southeast 240 276 22,700 600 Climbing Vancouver Center
07:03PM 52.5333 -129.8333 103° East 250 288 23,300 600 Climbing Vancouver Center
07:04PM 52.4833 -129.7500 135° Southeast 250 288 23,900 600 Climbing Vancouver Center
07:05PM 52.4500 -129.6667 123° Southeast 250 288 24,500 540 Climbing Vancouver Center
07:06PM 52.4000 -129.5833 135° Southeast 250 288 25,000 240 Climbing Vancouver Center
07:07PM 52.3667 -129.4667 115° Southeast 260 299 25,000  Level Vancouver Center
07:08PM 52.3167 -129.3500 125° Southeast 280 322 25,000  Level Vancouver Center
07:09PM 52.2667 -129.2333 125° Southeast 290 334 25,000  Level Vancouver Center
07:10PM 52.2333 -129.1500 123° Southeast 280 322 25,000  Level Vancouver Center
07:11PM 52.2000 -129.0333 115° Southeast 280 322 25,000  Level Vancouver Center
07:12PM 52.1500 -128.9167 125° Southeast 280 322 25,000  Level Vancouver Center
07:13PM 52.1000 -128.8333 134° Southeast 280 322 25,000  Level Vancouver Center
07:14PM 52.0667 -128.7167 115° Southeast 290 334 25,000  Level Vancouver Center
07:15PM 52.0167 -128.6000 125° Southeast 280 322 25,000  Level Vancouver Center
07:16PM 51.9667 -128.4833 125° Southeast 290 334 25,000  Level Vancouver Center
07:17PM 51.9167 -128.4000 134° Southeast 290 334 25,000  Level Vancouver Center
07:18PM 51.8833 -128.2833 115° Southeast 290 334 25,000  Level Vancouver Center
07:19PM 51.8333 -128.1833 129° Southeast 290 334 25,000  Level Vancouver Center
07:20PM 51.7833 -128.0667 125° Southeast 290 334 25,000  Level Vancouver Center
07:21PM 51.7500 -127.9500 115° Southeast 290 334 25,000  Level Vancouver Center
07:22PM 51.7000 -127.8667 134° Southeast 290 334 25,000  Level Vancouver Center
07:23PM 51.6667 -127.7500 115° Southeast 280 322 25,000  Level Vancouver Center
07:24PM 51.6167 -127.6500 129° Southeast 290 334 25,000  Level Vancouver Center
07:25PM 51.5667 -127.5333 125° Southeast 290 334 25,000  Level Vancouver Center
07:26PM 51.5167 -127.4167 125° Southeast 290 334 25,000  Level Vancouver Center
07:27PM 51.4667 -127.3333 134° Southeast 290 334 25,000  Level Vancouver Center
07:28PM 51.4333 -127.2333 118° Southeast 290 334 25,000  Level Vancouver Center
07:29PM 51.3833 -127.1167 124° Southeast 290 334 25,000  Level Vancouver Center
07:30PM 51.3333 -127.0000 124° Southeast 290 334 25,000  Level Vancouver Center
07:31PM 51.2833 -126.9167 134° Southeast 290 334 25,000  Level Vancouver Center
07:32PM 51.2333 -126.8167 129° Southeast 290 334 25,000  Level Vancouver Center
07:33PM 51.2000 -126.7000 114° Southeast 290 334 25,000  Level Vancouver Center
07:34PM 51.1667 -126.6000 118° Southeast 290 334 25,000  Level Vancouver Center
07:35PM 51.1167 -126.4833 124° Southeast 290 334 25,000  Level Vancouver Center
07:36PM 51.0667 -126.4000 134° Southeast 290 334 25,000  Level Vancouver Center
07:37PM 51.0167 -126.3000 128° Southeast 290 334 25,000  Level Vancouver Center
07:38PM 50.9667 -126.1833 124° Southeast 290 334 25,000  Level Vancouver Center
07:39PM 50.9167 -126.0833 128° Southeast 290 334 25,000  Level Vancouver Center
07:40PM 50.8667 -125.9667 124° Southeast 290 334 25,000  Level Vancouver Center
07:41PM 50.8167 -125.8667 128° Southeast 290 334 25,000  Level Vancouver Center
07:42PM 50.7667 -125.7833 133° Southeast 290 334 25,000  Level Vancouver Center
07:43PM 50.7333 -125.6667 114° Southeast 290 334 25,000  Level Vancouver Center
07:44PM 50.7000 -125.5667 118° Southeast 280 322 25,000  Level Vancouver Center
07:45PM 50.6500 -125.4833 133° Southeast 280 322 25,000  Level Vancouver Center
07:46PM 50.6000 -125.3833 128° Southeast 280 322 25,000  Level Vancouver Center
07:47PM 50.5500 -125.2667 124° Southeast 280 322 25,000  Level Vancouver Center
07:48PM 50.5000 -125.1667 128° Southeast 280 322 25,000  Level Vancouver Center
07:49PM 50.4500 -125.0833 133° Southeast 290 334 25,000  Level Vancouver Center
07:50PM 50.4000 -124.9833 128° Southeast 290 334 25,000  Level Vancouver Center
07:51PM 50.3500 -124.8667 124° Southeast 280 322 25,000  Level Vancouver Center
07:52PM 50.3000 -124.7667 128° Southeast 290 334 25,000 -300 Level Vancouver Center
07:53PM 50.2500 -124.6667 128° Southeast 290 334 24,500 -960 Descending Vancouver Center
07:54PM 50.2000 -124.5500 124° Southeast 320 368 23,100 -1,440 Descending Vancouver Center
07:55PM 50.1500 -124.4500 128° Southeast 340 391 21,700 -1,500 Descending Vancouver Center
07:56PM 50.0833 -124.3167 128° Southeast 330 380 20,200 -1,440 Descending Vancouver Center
07:57PM 50.0333 -124.2167 128° Southeast 340 391 18,900 -1,320 Descending Vancouver Center
07:58PM 49.9667 -124.0833 128° Southeast 330 380 17,600 -1,200 Descending Vancouver Center
07:59PM 49.9167 -123.9833 128° Southeast 320 368 16,500 -1,200 Descending Vancouver Center
08:00PM 49.8667 -123.8833 128° Southeast 310 357 15,200 -1,380 Descending Vancouver Center
08:01PM 49.8167 -123.7667 124° Southeast 320 368 13,800 -1,320 Descending Vancouver Center
08:02PM 49.7500 -123.7000 147° Southeast 310 357 12,600 -1,200 Descending Vancouver Center
08:03PM 49.6833 -123.6167 141° Southeast 290 334 11,500 -1,080 Descending Vancouver Center
08:04PM 49.6167 -123.5667 154° Southeast 280 322 10,500 -660 Descending Vancouver Center
08:05PM 49.5500 -123.4833 141° Southeast 270 311 10,200 -180 Descending Vancouver Center
08:06PM 49.5000 -123.4333 147° Southeast 260 299 10,200 -300 Level Vancouver Center
08:07PM 49.4500 -123.3833 147° Southeast 250 288 9,600 -660 Descending Vancouver Center
08:08PM 49.3833 -123.4167 198° South 220 253 8,900 -960 Descending Vancouver Center
08:09PM 49.3333 -123.4667 213° Southwest 220 253 7,700 -1,440 Descending Vancouver Center
08:10PM 49.2833 -123.5167 213° Southwest 210 242 6,100 -1,620 Descending Vancouver Center
08:11PM 49.2333 -123.5167 180° South 210 242 4,500 -1,500 Descending Vancouver Center
08:12PM 49.2167 -123.4333 107° East 210 242 3,100 -1,200 Descending Vancouver Center
08:13PM 49.2000 -123.3667 111° Southeast 190 219 2,100 -1,020 Descending Vancouver Center